Terminal Aerodrome Forecast
Issued by NWS Sioux Falls, SD

Home | Current Version | Previous Version | Text Only | Print | Product List | Glossary On
Versions: 1 2 3 4 5 6 7 8 9 10 11 12 13 14 15 16 17 18 19 20 21 22 23 24 25 26
958
FTUS43 KFSD 211006 AAA
TAFSUX
TAF AMD
KSUX 211006Z 2110/2206 16014G22KT P6SM SCT025 OVC035
     FM211200 17017KT P6SM BKN025
     FM211500 25014G23KT P6SM -SHRA VCTS OVC030CB
     FM211900 28014G24KT P6SM VCSH BKN040
     FM212100 31016G24KT P6SM BKN060
     FM220000 31010KT P6SM BKN120=

USA.gov is the U.S. government's official web portal to all federal, state and local government web resources and services.